sensor_id;sensor_type;location;lat;lon;timestamp;P1;durP1;ratioP1;P2;durP2;ratioP2
10410;SDS011;5251;52.112;8.606;2022-11-28T00:01:06;3.50;;;2.58;;
10410;SDS011;5251;52.112;8.606;2022-11-28T00:03:33;3.00;;;2.47;;
10410;SDS011;5251;52.112;8.606;2022-11-28T00:06:05;3.50;;;2.97;;
10410;SDS011;5251;52.112;8.606;2022-11-28T00:08:32;3.55;;;2.63;;
10410;SDS011;5251;52.112;8.606;2022-11-28T00:11:00;2.85;;;2.45;;
10410;SDS011;5251;52.112;8.606;2022-11-28T00:13:30;3.58;;;2.95;;
10410;SDS011;5251;52.112;8.606;2022-11-28T00:16:00;3.08;;;2.53;;
10410;SDS011;5251;52.112;8.606;2022-11-28T00:18:28;3.42;;;2.60;;
10410;SDS011;5251;52.112;8.606;2022-11-28T00:20:58;3.10;;;2.78;;
10410;SDS011;5251;52.112;8.606;2022-11-28T00:23:28;3.47;;;3.08;;
10410;SDS011;5251;52.112;8.606;2022-11-28T00:25:57;3.13;;;2.67;;
10410;SDS011;5251;52.112;8.606;2022-11-28T00:28:28;2.88;;;2.60;;
10410;SDS011;5251;52.112;8.606;2022-11-28T00:30:53;3.53;;;2.90;;
10410;SDS011;5251;52.112;8.606;2022-11-28T00:33:19;3.40;;;2.70;;
10410;SDS011;5251;52.112;8.606;2022-11-28T00:35:45;3.42;;;2.97;;
10410;SDS011;5251;52.112;8.606;2022-11-28T00:38:10;3.35;;;2.80;;
10410;SDS011;5251;52.112;8.606;2022-11-28T00:40:36;4.22;;;2.85;;
10410;SDS011;5251;52.112;8.606;2022-11-28T00:43:01;3.17;;;2.85;;
10410;SDS011;5251;52.112;8.606;2022-11-28T00:45:27;3.80;;;3.05;;
10410;SDS011;5251;52.112;8.606;2022-11-28T00:47:52;3.33;;;3.03;;
10410;SDS011;5251;52.112;8.606;2022-11-28T00:50:18;3.38;;;2.72;;
10410;SDS011;5251;52.112;8.606;2022-11-28T00:52:44;3.70;;;2.85;;
10410;SDS011;5251;52.112;8.606;2022-11-28T00:55:09;3.45;;;2.40;;
10410;SDS011;5251;52.112;8.606;2022-11-28T00:57:35;2.92;;;2.60;;
10410;SDS011;5251;52.112;8.606;2022-11-28T01:00:00;2.80;;;2.40;;
10410;SDS011;5251;52.112;8.606;2022-11-28T01:02:26;3.50;;;3.05;;
10410;SDS011;5251;52.112;8.606;2022-11-28T01:04:52;3.15;;;2.85;;
10410;SDS011;5251;52.112;8.606;2022-11-28T01:07:18;3.05;;;2.60;;
10410;SDS011;5251;52.112;8.606;2022-11-28T01:09:43;3.47;;;3.00;;
10410;SDS011;5251;52.112;8.606;2022-11-28T01:12:09;2.85;;;2.53;;
10410;SDS011;5251;52.112;8.606;2022-11-28T01:14:34;3.13;;;2.58;;
10410;SDS011;5251;52.112;8.606;2022-11-28T01:17:00;3.40;;;2.50;;
10410;SDS011;5251;52.112;8.606;2022-11-28T01:19:25;3.28;;;2.92;;
10410;SDS011;5251;52.112;8.606;2022-11-28T01:21:51;3.58;;;2.80;;
10410;SDS011;5251;52.112;8.606;2022-11-28T01:24:17;3.30;;;2.55;;
10410;SDS011;5251;52.112;8.606;2022-11-28T01:26:42;3.20;;;2.60;;
10410;SDS011;5251;52.112;8.606;2022-11-28T01:29:09;3.22;;;2.90;;
10410;SDS011;5251;52.112;8.606;2022-11-28T01:31:35;3.33;;;2.72;;
10410;SDS011;5251;52.112;8.606;2022-11-28T01:34:01;3.90;;;2.67;;
10410;SDS011;5251;52.112;8.606;2022-11-28T01:36:27;3.58;;;2.80;;
10410;SDS011;5251;52.112;8.606;2022-11-28T01:38:53;4.88;;;2.92;;
10410;SDS011;5251;52.112;8.606;2022-11-28T01:41:20;3.03;;;2.50;;
10410;SDS011;5251;52.112;8.606;2022-11-28T01:46:39;3.67;;;2.85;;
10410;SDS011;5251;52.112;8.606;2022-11-28T01:51:36;3.33;;;2.85;;
10410;SDS011;5251;52.112;8.606;2022-11-28T01:54:04;3.08;;;2.72;;
10410;SDS011;5251;52.112;8.606;2022-11-28T01:56:41;3.22;;;2.92;;
10410;SDS011;5251;52.112;8.606;2022-11-28T01:59:11;3.05;;;2.70;;
10410;SDS011;5251;52.112;8.606;2022-11-28T02:01:39;3.30;;;2.63;;
10410;SDS011;5251;52.112;8.606;2022-11-28T02:04:06;3.40;;;2.90;;
10410;SDS011;5251;52.112;8.606;2022-11-28T02:06:32;3.42;;;2.60;;
10410;SDS011;5251;52.112;8.606;2022-11-28T02:08:59;3.25;;;2.88;;
10410;SDS011;5251;52.112;8.606;2022-11-28T02:11:29;5.43;;;2.90;;
10410;SDS011;5251;52.112;8.606;2022-11-28T02:17:02;3.40;;;2.90;;
10410;SDS011;5251;52.112;8.606;2022-11-28T02:19:50;3.97;;;2.83;;
10410;SDS011;5251;52.112;8.606;2022-11-28T02:22:40;3.20;;;2.80;;
10410;SDS011;5251;52.112;8.606;2022-11-28T02:33:33;4.88;;;3.00;;
10410;SDS011;5251;52.112;8.606;2022-11-28T02:36:18;3.65;;;3.13;;
10410;SDS011;5251;52.112;8.606;2022-11-28T02:39:39;3.47;;;3.15;;
10410;SDS011;5251;52.112;8.606;2022-11-28T02:42:06;3.38;;;3.08;;
10410;SDS011;5251;52.112;8.606;2022-11-28T02:44:54;4.60;;;3.10;;
10410;SDS011;5251;52.112;8.606;2022-11-28T02:47:35;4.47;;;3.10;;
10410;SDS011;5251;52.112;8.606;2022-11-28T02:50:12;4.47;;;3.63;;
10410;SDS011;5251;52.112;8.606;2022-11-28T02:52:52;4.13;;;3.28;;
10410;SDS011;5251;52.112;8.606;2022-11-28T02:55:27;3.53;;;3.05;;
10410;SDS011;5251;52.112;8.606;2022-11-28T02:57:54;4.25;;;3.58;;
10410;SDS011;5251;52.112;8.606;2022-11-28T03:00:23;4.15;;;3.40;;
10410;SDS011;5251;52.112;8.606;2022-11-28T03:05:48;3.83;;;3.42;;
10410;SDS011;5251;52.112;8.606;2022-11-28T03:08:36;3.90;;;3.50;;
10410;SDS011;5251;52.112;8.606;2022-11-28T03:17:20;4.75;;;3.50;;
10410;SDS011;5251;52.112;8.606;2022-11-28T03:22:34;4.72;;;3.85;;
10410;SDS011;5251;52.112;8.606;2022-11-28T03:25:19;4.03;;;3.30;;
10410;SDS011;5251;52.112;8.606;2022-11-28T03:28:06;4.43;;;3.03;;
10410;SDS011;5251;52.112;8.606;2022-11-28T03:30:47;4.47;;;3.70;;
10410;SDS011;5251;52.112;8.606;2022-11-28T03:33:16;4.43;;;3.60;;
10410;SDS011;5251;52.112;8.606;2022-11-28T03:35:45;4.68;;;3.45;;
10410;SDS011;5251;52.112;8.606;2022-11-28T03:38:16;3.67;;;3.13;;
10410;SDS011;5251;52.112;8.606;2022-11-28T03:40:47;4.70;;;3.20;;
10410;SDS011;5251;52.112;8.606;2022-11-28T03:43:18;4.15;;;3.65;;
10410;SDS011;5251;52.112;8.606;2022-11-28T03:45:50;3.83;;;3.38;;
10410;SDS011;5251;52.112;8.606;2022-11-28T03:48:20;3.58;;;3.08;;
10410;SDS011;5251;52.112;8.606;2022-11-28T03:53:55;3.97;;;3.42;;
10410;SDS011;5251;52.112;8.606;2022-11-28T04:02:19;5.18;;;3.88;;
10410;SDS011;5251;52.112;8.606;2022-11-28T04:10:35;4.45;;;3.83;;
10410;SDS011;5251;52.112;8.606;2022-11-28T04:15:40;4.38;;;3.85;;
10410;SDS011;5251;52.112;8.606;2022-11-28T04:18:26;4.25;;;3.85;;
10410;SDS011;5251;52.112;8.606;2022-11-28T04:21:32;4.50;;;3.92;;
10410;SDS011;5251;52.112;8.606;2022-11-28T04:24:13;5.40;;;3.78;;
10410;SDS011;5251;52.112;8.606;2022-11-28T04:26:47;4.20;;;3.80;;
10410;SDS011;5251;52.112;8.606;2022-11-28T04:29:17;4.72;;;3.90;;
10410;SDS011;5251;52.112;8.606;2022-11-28T04:31:46;4.28;;;3.80;;
10410;SDS011;5251;52.112;8.606;2022-11-28T04:34:15;4.90;;;4.18;;
10410;SDS011;5251;52.112;8.606;2022-11-28T04:36:42;4.22;;;3.70;;
10410;SDS011;5251;52.112;8.606;2022-11-28T04:39:11;4.95;;;4.15;;
10410;SDS011;5251;52.112;8.606;2022-11-28T04:41:47;5.00;;;3.92;;
10410;SDS011;5251;52.112;8.606;2022-11-28T04:44:30;4.15;;;3.75;;
10410;SDS011;5251;52.112;8.606;2022-11-28T04:47:00;5.38;;;4.10;;
10410;SDS011;5251;52.112;8.606;2022-11-28T04:49:26;4.20;;;3.80;;
10410;SDS011;5251;52.112;8.606;2022-11-28T04:59:41;4.88;;;4.00;;
10410;SDS011;5251;52.112;8.606;2022-11-28T05:02:08;4.50;;;3.70;;
10410;SDS011;5251;52.112;8.606;2022-11-28T05:04:37;4.55;;;3.80;;
10410;SDS011;5251;52.112;8.606;2022-11-28T05:07:03;4.50;;;4.05;;
10410;SDS011;5251;52.112;8.606;2022-11-28T05:09:31;5.03;;;4.50;;
10410;SDS011;5251;52.112;8.606;2022-11-28T05:11:56;6.55;;;4.57;;
10410;SDS011;5251;52.112;8.606;2022-11-28T05:14:22;4.82;;;4.28;;
10410;SDS011;5251;52.112;8.606;2022-11-28T05:16:48;4.47;;;3.83;;
10410;SDS011;5251;52.112;8.606;2022-11-28T05:19:13;5.28;;;4.07;;
10410;SDS011;5251;52.112;8.606;2022-11-28T05:21:39;4.55;;;4.03;;
10410;SDS011;5251;52.112;8.606;2022-11-28T05:24:05;4.47;;;4.07;;
10410;SDS011;5251;52.112;8.606;2022-11-28T05:26:31;5.32;;;4.30;;
10410;SDS011;5251;52.112;8.606;2022-11-28T05:28:59;4.50;;;4.10;;
10410;SDS011;5251;52.112;8.606;2022-11-28T05:31:25;4.78;;;4.20;;
10410;SDS011;5251;52.112;8.606;2022-11-28T05:33:52;5.68;;;4.15;;
10410;SDS011;5251;52.112;8.606;2022-11-28T05:36:18;5.45;;;4.60;;
10410;SDS011;5251;52.112;8.606;2022-11-28T05:38:45;5.75;;;4.20;;
10410;SDS011;5251;52.112;8.606;2022-11-28T05:41:18;5.97;;;4.55;;
10410;SDS011;5251;52.112;8.606;2022-11-28T05:43:45;5.32;;;4.10;;
10410;SDS011;5251;52.112;8.606;2022-11-28T05:46:10;4.93;;;4.22;;
10410;SDS011;5251;52.112;8.606;2022-11-28T05:48:36;5.93;;;4.30;;
10410;SDS011;5251;52.112;8.606;2022-11-28T05:51:04;5.43;;;3.92;;
10410;SDS011;5251;52.112;8.606;2022-11-28T05:53:30;4.65;;;4.10;;
10410;SDS011;5251;52.112;8.606;2022-11-28T05:55:56;5.22;;;4.28;;
10410;SDS011;5251;52.112;8.606;2022-11-28T05:58:22;5.50;;;4.30;;
10410;SDS011;5251;52.112;8.606;2022-11-28T06:00:48;5.18;;;3.92;;
10410;SDS011;5251;52.112;8.606;2022-11-28T06:03:13;5.45;;;4.28;;
10410;SDS011;5251;52.112;8.606;2022-11-28T06:05:40;4.90;;;4.40;;
10410;SDS011;5251;52.112;8.606;2022-11-28T06:08:07;6.72;;;4.13;;
10410;SDS011;5251;52.112;8.606;2022-11-28T06:10:35;4.70;;;4.22;;
10410;SDS011;5251;52.112;8.606;2022-11-28T06:13:01;4.88;;;4.38;;
10410;SDS011;5251;52.112;8.606;2022-11-28T06:15:28;4.55;;;4.05;;
10410;SDS011;5251;52.112;8.606;2022-11-28T06:17:55;5.55;;;4.40;;
10410;SDS011;5251;52.112;8.606;2022-11-28T06:20:20;5.60;;;4.70;;
10410;SDS011;5251;52.112;8.606;2022-11-28T06:22:46;7.15;;;4.95;;
10410;SDS011;5251;52.112;8.606;2022-11-28T06:25:11;6.18;;;4.45;;
10410;SDS011;5251;52.112;8.606;2022-11-28T06:27:37;4.50;;;3.88;;
10410;SDS011;5251;52.112;8.606;2022-11-28T06:30:03;5.80;;;4.60;;
10410;SDS011;5251;52.112;8.606;2022-11-28T06:32:30;4.88;;;4.25;;
10410;SDS011;5251;52.112;8.606;2022-11-28T06:34:56;5.82;;;4.75;;
10410;SDS011;5251;52.112;8.606;2022-11-28T06:37:21;5.53;;;4.30;;
10410;SDS011;5251;52.112;8.606;2022-11-28T06:39:47;6.97;;;4.53;;
10410;SDS011;5251;52.112;8.606;2022-11-28T06:42:15;6.03;;;4.53;;
10410;SDS011;5251;52.112;8.606;2022-11-28T06:44:41;5.13;;;4.47;;
10410;SDS011;5251;52.112;8.606;2022-11-28T06:47:07;5.10;;;4.50;;
10410;SDS011;5251;52.112;8.606;2022-11-28T06:49:32;6.30;;;4.60;;
10410;SDS011;5251;52.112;8.606;2022-11-28T06:51:59;5.22;;;4.50;;
10410;SDS011;5251;52.112;8.606;2022-11-28T06:54:25;5.32;;;4.47;;
10410;SDS011;5251;52.112;8.606;2022-11-28T06:56:50;5.68;;;5.07;;
10410;SDS011;5251;52.112;8.606;2022-11-28T06:59:16;5.70;;;4.78;;
10410;SDS011;5251;52.112;8.606;2022-11-28T07:01:42;5.38;;;4.75;;
10410;SDS011;5251;52.112;8.606;2022-11-28T07:04:07;5.80;;;5.20;;
10410;SDS011;5251;52.112;8.606;2022-11-28T07:06:34;6.35;;;4.80;;
10410;SDS011;5251;52.112;8.606;2022-11-28T07:08:59;6.00;;;5.20;;
10410;SDS011;5251;52.112;8.606;2022-11-28T07:11:26;5.75;;;4.80;;
10410;SDS011;5251;52.112;8.606;2022-11-28T07:13:54;6.20;;;4.80;;
10410;SDS011;5251;52.112;8.606;2022-11-28T07:16:21;6.57;;;5.30;;
10410;SDS011;5251;52.112;8.606;2022-11-28T07:18:55;5.70;;;4.80;;
10410;SDS011;5251;52.112;8.606;2022-11-28T07:21:22;7.72;;;5.38;;
10410;SDS011;5251;52.112;8.606;2022-11-28T07:23:48;6.47;;;5.40;;
10410;SDS011;5251;52.112;8.606;2022-11-28T07:26:14;7.57;;;5.40;;
10410;SDS011;5251;52.112;8.606;2022-11-28T07:28:41;6.93;;;5.40;;
10410;SDS011;5251;52.112;8.606;2022-11-28T07:33:38;6.85;;;5.20;;
10410;SDS011;5251;52.112;8.606;2022-11-28T07:36:15;6.80;;;5.40;;
10410;SDS011;5251;52.112;8.606;2022-11-28T07:38:52;5.47;;;4.60;;
10410;SDS011;5251;52.112;8.606;2022-11-28T07:41:20;6.45;;;5.03;;
10410;SDS011;5251;52.112;8.606;2022-11-28T07:43:46;7.25;;;5.18;;
10410;SDS011;5251;52.112;8.606;2022-11-28T07:46:16;7.50;;;5.13;;
10410;SDS011;5251;52.112;8.606;2022-11-28T07:48:44;6.47;;;5.00;;
10410;SDS011;5251;52.112;8.606;2022-11-28T07:51:10;7.40;;;5.00;;
10410;SDS011;5251;52.112;8.606;2022-11-28T07:53:38;6.45;;;4.75;;
10410;SDS011;5251;52.112;8.606;2022-11-28T07:56:05;6.20;;;5.07;;
10410;SDS011;5251;52.112;8.606;2022-11-28T07:58:34;6.10;;;5.50;;
10410;SDS011;5251;52.112;8.606;2022-11-28T08:01:07;6.47;;;4.88;;
10410;SDS011;5251;52.112;8.606;2022-11-28T08:03:33;5.88;;;4.88;;
10410;SDS011;5251;52.112;8.606;2022-11-28T08:05:59;7.35;;;5.85;;
10410;SDS011;5251;52.112;8.606;2022-11-28T08:08:25;6.18;;;5.25;;
10410;SDS011;5251;52.112;8.606;2022-11-28T08:10:56;5.82;;;5.22;;
10410;SDS011;5251;52.112;8.606;2022-11-28T08:13:22;8.45;;;5.82;;
10410;SDS011;5251;52.112;8.606;2022-11-28T08:15:48;8.13;;;5.85;;
10410;SDS011;5251;52.112;8.606;2022-11-28T08:18:13;7.60;;;5.47;;
10410;SDS011;5251;52.112;8.606;2022-11-28T08:20:39;7.32;;;5.65;;
10410;SDS011;5251;52.112;8.606;2022-11-28T08:23:05;7.60;;;5.80;;
10410;SDS011;5251;52.112;8.606;2022-11-28T08:25:30;7.75;;;5.18;;
10410;SDS011;5251;52.112;8.606;2022-11-28T08:27:56;6.93;;;5.57;;
10410;SDS011;5251;52.112;8.606;2022-11-28T08:30:22;6.43;;;4.90;;
10410;SDS011;5251;52.112;8.606;2022-11-28T08:32:47;8.02;;;6.10;;
10410;SDS011;5251;52.112;8.606;2022-11-28T08:35:13;6.93;;;5.85;;
10410;SDS011;5251;52.112;8.606;2022-11-28T08:37:39;6.43;;;5.35;;
10410;SDS011;5251;52.112;8.606;2022-11-28T08:40:05;7.72;;;5.95;;
10410;SDS011;5251;52.112;8.606;2022-11-28T08:42:31;7.30;;;5.78;;
10410;SDS011;5251;52.112;8.606;2022-11-28T08:44:56;8.00;;;5.75;;
10410;SDS011;5251;52.112;8.606;2022-11-28T08:47:22;8.25;;;5.47;;
10410;SDS011;5251;52.112;8.606;2022-11-28T08:49:48;6.40;;;5.43;;
10410;SDS011;5251;52.112;8.606;2022-11-28T08:52:13;7.05;;;5.28;;
10410;SDS011;5251;52.112;8.606;2022-11-28T08:54:39;7.85;;;5.68;;
10410;SDS011;5251;52.112;8.606;2022-11-28T08:57:05;6.53;;;5.07;;
10410;SDS011;5251;52.112;8.606;2022-11-28T08:59:30;8.20;;;5.93;;
10410;SDS011;5251;52.112;8.606;2022-11-28T09:01:56;8.80;;;5.53;;
10410;SDS011;5251;52.112;8.606;2022-11-28T09:04:22;7.65;;;5.60;;
10410;SDS011;5251;52.112;8.606;2022-11-28T09:06:48;6.03;;;5.43;;
10410;SDS011;5251;52.112;8.606;2022-11-28T09:09:14;7.72;;;5.97;;
10410;SDS011;5251;52.112;8.606;2022-11-28T09:11:39;7.47;;;5.80;;
10410;SDS011;5251;52.112;8.606;2022-11-28T09:14:06;8.05;;;6.22;;
10410;SDS011;5251;52.112;8.606;2022-11-28T09:16:32;9.77;;;6.72;;
10410;SDS011;5251;52.112;8.606;2022-11-28T09:18:57;9.00;;;7.00;;
10410;SDS011;5251;52.112;8.606;2022-11-28T09:21:23;7.78;;;6.30;;
10410;SDS011;5251;52.112;8.606;2022-11-28T09:23:50;7.88;;;5.90;;
10410;SDS011;5251;52.112;8.606;2022-11-28T09:26:19;7.78;;;6.25;;
10410;SDS011;5251;52.112;8.606;2022-11-28T09:28:45;6.65;;;5.65;;
10410;SDS011;5251;52.112;8.606;2022-11-28T09:31:12;7.53;;;5.78;;
10410;SDS011;5251;52.112;8.606;2022-11-28T09:33:39;7.70;;;5.95;;
10410;SDS011;5251;52.112;8.606;2022-11-28T09:36:09;6.82;;;5.80;;
10410;SDS011;5251;52.112;8.606;2022-11-28T09:38:40;7.28;;;5.70;;
10410;SDS011;5251;52.112;8.606;2022-11-28T09:44:20;7.90;;;5.97;;
10410;SDS011;5251;52.112;8.606;2022-11-28T09:46:50;8.52;;;6.43;;
10410;SDS011;5251;52.112;8.606;2022-11-28T09:49:24;8.57;;;6.35;;
10410;SDS011;5251;52.112;8.606;2022-11-28T09:52:05;8.48;;;6.20;;
10410;SDS011;5251;52.112;8.606;2022-11-28T09:54:46;8.27;;;7.20;;
10410;SDS011;5251;52.112;8.606;2022-11-28T09:57:20;9.82;;;6.57;;
10410;SDS011;5251;52.112;8.606;2022-11-28T09:59:54;9.35;;;6.47;;
10410;SDS011;5251;52.112;8.606;2022-11-28T10:02:32;8.40;;;6.50;;
10410;SDS011;5251;52.112;8.606;2022-11-28T10:05:22;8.40;;;6.40;;
10410;SDS011;5251;52.112;8.606;2022-11-28T10:10:46;8.40;;;6.20;;
10410;SDS011;5251;52.112;8.606;2022-11-28T10:13:49;7.53;;;6.53;;
10410;SDS011;5251;52.112;8.606;2022-11-28T10:16:23;8.88;;;6.95;;
10410;SDS011;5251;52.112;8.606;2022-11-28T10:18:59;8.35;;;6.60;;
10410;SDS011;5251;52.112;8.606;2022-11-28T10:21:32;9.13;;;6.82;;
10410;SDS011;5251;52.112;8.606;2022-11-28T10:24:08;9.25;;;6.82;;
10410;SDS011;5251;52.112;8.606;2022-11-28T10:26:42;8.43;;;6.85;;
10410;SDS011;5251;52.112;8.606;2022-11-28T10:31:53;7.60;;;6.38;;
10410;SDS011;5251;52.112;8.606;2022-11-28T10:37:23;8.07;;;6.75;;
10410;SDS011;5251;52.112;8.606;2022-11-28T10:39:50;8.65;;;7.15;;
10410;SDS011;5251;52.112;8.606;2022-11-28T10:42:27;7.63;;;6.57;;
10410;SDS011;5251;52.112;8.606;2022-11-28T10:45:10;7.30;;;6.20;;
10410;SDS011;5251;52.112;8.606;2022-11-28T11:01:15;10.25;;;7.50;;
10410;SDS011;5251;52.112;8.606;2022-11-28T11:03:40;10.70;;;7.43;;
10410;SDS011;5251;52.112;8.606;2022-11-28T11:06:06;8.20;;;6.72;;
10410;SDS011;5251;52.112;8.606;2022-11-28T11:08:36;7.82;;;6.53;;
10410;SDS011;5251;52.112;8.606;2022-11-28T11:11:04;28.80;;;19.42;;
10410;SDS011;5251;52.112;8.606;2022-11-28T11:13:59;11.57;;;8.35;;
10410;SDS011;5251;52.112;8.606;2022-11-28T11:16:49;9.48;;;7.18;;
10410;SDS011;5251;52.112;8.606;2022-11-28T11:19:24;9.23;;;7.32;;
10410;SDS011;5251;52.112;8.606;2022-11-28T11:24:35;9.95;;;7.85;;
10410;SDS011;5251;52.112;8.606;2022-11-28T11:27:02;8.02;;;6.68;;
10410;SDS011;5251;52.112;8.606;2022-11-28T11:29:38;8.57;;;6.93;;
10410;SDS011;5251;52.112;8.606;2022-11-28T11:32:05;8.25;;;6.63;;
10410;SDS011;5251;52.112;8.606;2022-11-28T11:34:43;9.38;;;7.22;;
10410;SDS011;5251;52.112;8.606;2022-11-28T11:37:17;8.23;;;6.70;;
10410;SDS011;5251;52.112;8.606;2022-11-28T11:39:55;8.43;;;7.03;;
10410;SDS011;5251;52.112;8.606;2022-11-28T11:42:22;9.48;;;6.65;;
10410;SDS011;5251;52.112;8.606;2022-11-28T11:44:50;7.55;;;6.20;;
10410;SDS011;5251;52.112;8.606;2022-11-28T11:47:16;7.75;;;6.88;;
10410;SDS011;5251;52.112;8.606;2022-11-28T11:49:46;7.22;;;6.47;;
10410;SDS011;5251;52.112;8.606;2022-11-28T11:52:14;7.15;;;6.20;;
10410;SDS011;5251;52.112;8.606;2022-11-28T12:00:13;9.02;;;6.95;;
10410;SDS011;5251;52.112;8.606;2022-11-28T12:02:59;7.78;;;6.90;;
10410;SDS011;5251;52.112;8.606;2022-11-28T12:13:32;6.93;;;5.85;;
10410;SDS011;5251;52.112;8.606;2022-11-28T12:16:20;8.30;;;6.88;;
10410;SDS011;5251;52.112;8.606;2022-11-28T12:24:14;15.63;;;12.90;;
10410;SDS011;5251;52.112;8.606;2022-11-28T12:26:46;12.57;;;9.93;;
10410;SDS011;5251;52.112;8.606;2022-11-28T12:35:38;18.13;;;14.38;;
10410;SDS011;5251;52.112;8.606;2022-11-28T12:38:15;40.33;;;29.02;;
10410;SDS011;5251;52.112;8.606;2022-11-28T12:52:35;7.78;;;6.40;;
10410;SDS011;5251;52.112;8.606;2022-11-28T13:00:25;8.23;;;6.70;;
10410;SDS011;5251;52.112;8.606;2022-11-28T13:14:14;10.18;;;7.50;;
10410;SDS011;5251;52.112;8.606;2022-11-28T13:17:12;7.60;;;6.45;;
10410;SDS011;5251;52.112;8.606;2022-11-28T13:19:51;8.30;;;6.78;;
10410;SDS011;5251;52.112;8.606;2022-11-28T13:22:28;8.68;;;6.72;;
10410;SDS011;5251;52.112;8.606;2022-11-28T13:30:51;8.20;;;6.80;;
10410;SDS011;5251;52.112;8.606;2022-11-28T13:33:28;10.63;;;7.45;;
10410;SDS011;5251;52.112;8.606;2022-11-28T13:36:25;8.43;;;7.00;;
10410;SDS011;5251;52.112;8.606;2022-11-28T13:41:47;7.97;;;6.57;;
10410;SDS011;5251;52.112;8.606;2022-11-28T13:44:23;8.43;;;6.95;;
10410;SDS011;5251;52.112;8.606;2022-11-28T13:46:56;9.25;;;7.10;;
10410;SDS011;5251;52.112;8.606;2022-11-28T13:49:22;9.45;;;7.28;;
10410;SDS011;5251;52.112;8.606;2022-11-28T13:59:59;9.27;;;7.32;;
10410;SDS011;5251;52.112;8.606;2022-11-28T14:05:13;9.57;;;7.35;;
10410;SDS011;5251;52.112;8.606;2022-11-28T14:07:47;10.00;;;7.70;;
10410;SDS011;5251;52.112;8.606;2022-11-28T14:15:43;10.65;;;7.40;;
10410;SDS011;5251;52.112;8.606;2022-11-28T14:18:32;39.65;;;24.67;;
10410;SDS011;5251;52.112;8.606;2022-11-28T14:21:21;24.08;;;14.88;;
10410;SDS011;5251;52.112;8.606;2022-11-28T14:26:31;23.45;;;15.45;;
10410;SDS011;5251;52.112;8.606;2022-11-28T14:28:59;11.55;;;8.80;;
10410;SDS011;5251;52.112;8.606;2022-11-28T14:31:36;9.73;;;7.22;;
10410;SDS011;5251;52.112;8.606;2022-11-28T14:34:04;31.60;;;18.75;;
10410;SDS011;5251;52.112;8.606;2022-11-28T14:39:07;10.45;;;8.05;;
10410;SDS011;5251;52.112;8.606;2022-11-28T14:55:03;11.52;;;9.70;;
10410;SDS011;5251;52.112;8.606;2022-11-28T14:57:36;11.00;;;9.90;;
10410;SDS011;5251;52.112;8.606;2022-11-28T15:02:44;10.88;;;7.30;;
10410;SDS011;5251;52.112;8.606;2022-11-28T15:13:55;8.43;;;7.22;;
10410;SDS011;5251;52.112;8.606;2022-11-28T15:16:31;9.30;;;7.90;;
10410;SDS011;5251;52.112;8.606;2022-11-28T15:19:02;10.00;;;7.80;;
10410;SDS011;5251;52.112;8.606;2022-11-28T15:21:41;12.98;;;7.57;;
10410;SDS011;5251;52.112;8.606;2022-11-28T15:26:49;8.68;;;7.32;;
10410;SDS011;5251;52.112;8.606;2022-11-28T15:29:22;8.88;;;7.72;;
10410;SDS011;5251;52.112;8.606;2022-11-28T15:31:51;8.18;;;6.90;;
10410;SDS011;5251;52.112;8.606;2022-11-28T15:36:56;9.85;;;7.63;;
10410;SDS011;5251;52.112;8.606;2022-11-28T15:39:26;9.95;;;7.38;;
10410;SDS011;5251;52.112;8.606;2022-11-28T15:41:55;9.95;;;7.68;;
10410;SDS011;5251;52.112;8.606;2022-11-28T15:44:22;9.18;;;7.60;;
10410;SDS011;5251;52.112;8.606;2022-11-28T15:46:48;8.52;;;7.25;;
10410;SDS011;5251;52.112;8.606;2022-11-28T15:49:28;8.27;;;7.13;;
10410;SDS011;5251;52.112;8.606;2022-11-28T15:51:59;9.35;;;7.72;;
10410;SDS011;5251;52.112;8.606;2022-11-28T15:57:02;9.15;;;7.43;;
10410;SDS011;5251;52.112;8.606;2022-11-28T15:59:29;10.05;;;7.78;;
10410;SDS011;5251;52.112;8.606;2022-11-28T16:01:56;29.65;;;19.48;;
10410;SDS011;5251;52.112;8.606;2022-11-28T16:04:25;21.20;;;13.30;;
10410;SDS011;5251;52.112;8.606;2022-11-28T16:06:54;14.07;;;10.23;;
10410;SDS011;5251;52.112;8.606;2022-11-28T16:09:28;9.70;;;8.45;;
10410;SDS011;5251;52.112;8.606;2022-11-28T16:12:03;10.82;;;8.30;;
10410;SDS011;5251;52.112;8.606;2022-11-28T16:14:35;10.02;;;7.80;;
10410;SDS011;5251;52.112;8.606;2022-11-28T16:17:18;9.23;;;7.40;;
10410;SDS011;5251;52.112;8.606;2022-11-28T16:19:48;10.75;;;8.05;;
10410;SDS011;5251;52.112;8.606;2022-11-28T16:22:17;9.30;;;8.00;;
10410;SDS011;5251;52.112;8.606;2022-11-28T16:24:45;9.25;;;7.45;;
10410;SDS011;5251;52.112;8.606;2022-11-28T16:27:43;10.02;;;7.90;;
10410;SDS011;5251;52.112;8.606;2022-11-28T16:32:53;9.80;;;7.80;;
10410;SDS011;5251;52.112;8.606;2022-11-28T16:38:02;12.55;;;8.50;;
10410;SDS011;5251;52.112;8.606;2022-11-28T16:40:40;12.40;;;8.57;;
10410;SDS011;5251;52.112;8.606;2022-11-28T16:43:16;10.68;;;7.93;;
10410;SDS011;5251;52.112;8.606;2022-11-28T16:45:43;10.57;;;8.85;;
10410;SDS011;5251;52.112;8.606;2022-11-28T16:48:09;11.55;;;8.82;;
10410;SDS011;5251;52.112;8.606;2022-11-28T16:51:04;11.02;;;8.40;;
10410;SDS011;5251;52.112;8.606;2022-11-28T16:53:41;10.75;;;8.13;;
10410;SDS011;5251;52.112;8.606;2022-11-28T16:57:05;10.13;;;8.27;;
10410;SDS011;5251;52.112;8.606;2022-11-28T17:01:43;10.80;;;8.20;;
10410;SDS011;5251;52.112;8.606;2022-11-28T17:06:48;13.55;;;10.43;;
10410;SDS011;5251;52.112;8.606;2022-11-28T17:09:15;12.25;;;8.35;;
10410;SDS011;5251;52.112;8.606;2022-11-28T17:11:46;8.90;;;7.70;;
10410;SDS011;5251;52.112;8.606;2022-11-28T17:14:18;11.95;;;9.00;;
10410;SDS011;5251;52.112;8.606;2022-11-28T17:16:43;13.18;;;8.68;;
10410;SDS011;5251;52.112;8.606;2022-11-28T17:19:09;9.73;;;8.38;;
10410;SDS011;5251;52.112;8.606;2022-11-28T17:21:39;10.13;;;8.57;;
10410;SDS011;5251;52.112;8.606;2022-11-28T17:24:20;12.57;;;10.63;;
10410;SDS011;5251;52.112;8.606;2022-11-28T17:26:48;11.15;;;9.02;;
10410;SDS011;5251;52.112;8.606;2022-11-28T17:29:16;11.50;;;9.20;;
10410;SDS011;5251;52.112;8.606;2022-11-28T17:31:42;10.82;;;8.68;;
10410;SDS011;5251;52.112;8.606;2022-11-28T17:34:17;11.07;;;9.10;;
10410;SDS011;5251;52.112;8.606;2022-11-28T17:36:45;11.23;;;8.90;;
10410;SDS011;5251;52.112;8.606;2022-11-28T17:39:14;13.85;;;10.07;;
10410;SDS011;5251;52.112;8.606;2022-11-28T17:41:40;10.55;;;8.43;;
10410;SDS011;5251;52.112;8.606;2022-11-28T17:44:11;10.73;;;8.88;;
10410;SDS011;5251;52.112;8.606;2022-11-28T17:46:44;11.35;;;8.88;;
10410;SDS011;5251;52.112;8.606;2022-11-28T17:49:10;11.23;;;8.80;;
10410;SDS011;5251;52.112;8.606;2022-11-28T17:51:36;12.75;;;8.95;;
10410;SDS011;5251;52.112;8.606;2022-11-28T17:54:02;12.43;;;8.60;;
10410;SDS011;5251;52.112;8.606;2022-11-28T17:56:28;11.45;;;8.45;;
10410;SDS011;5251;52.112;8.606;2022-11-28T17:58:55;10.70;;;8.63;;
10410;SDS011;5251;52.112;8.606;2022-11-28T18:01:21;11.90;;;8.48;;
10410;SDS011;5251;52.112;8.606;2022-11-28T18:03:50;12.23;;;9.60;;
10410;SDS011;5251;52.112;8.606;2022-11-28T18:06:17;10.85;;;9.30;;
10410;SDS011;5251;52.112;8.606;2022-11-28T18:08:44;11.75;;;8.77;;
10410;SDS011;5251;52.112;8.606;2022-11-28T18:11:11;12.40;;;9.15;;
10410;SDS011;5251;52.112;8.606;2022-11-28T18:13:38;11.18;;;9.02;;
10410;SDS011;5251;52.112;8.606;2022-11-28T18:16:06;11.18;;;9.20;;
10410;SDS011;5251;52.112;8.606;2022-11-28T18:18:39;11.73;;;9.05;;
10410;SDS011;5251;52.112;8.606;2022-11-28T18:21:05;11.52;;;8.95;;
10410;SDS011;5251;52.112;8.606;2022-11-28T18:23:33;11.00;;;9.25;;
10410;SDS011;5251;52.112;8.606;2022-11-28T18:26:04;12.68;;;9.82;;
10410;SDS011;5251;52.112;8.606;2022-11-28T18:28:30;12.55;;;10.15;;
10410;SDS011;5251;52.112;8.606;2022-11-28T18:30:56;12.80;;;9.82;;
10410;SDS011;5251;52.112;8.606;2022-11-28T18:33:21;11.98;;;9.98;;
10410;SDS011;5251;52.112;8.606;2022-11-28T18:35:47;11.73;;;9.80;;
10410;SDS011;5251;52.112;8.606;2022-11-28T18:38:12;11.95;;;9.45;;
10410;SDS011;5251;52.112;8.606;2022-11-28T18:40:38;12.43;;;10.18;;
10410;SDS011;5251;52.112;8.606;2022-11-28T18:43:04;10.45;;;9.07;;
10410;SDS011;5251;52.112;8.606;2022-11-28T18:45:30;13.02;;;9.55;;
10410;SDS011;5251;52.112;8.606;2022-11-28T18:47:56;11.07;;;9.35;;